createdAt,value
2017-12-21T00:00:50.846Z,5.00
2017-12-21T00:03:18.486Z,5.00
2017-12-21T00:05:46.166Z,5.00
2017-12-21T00:08:13.868Z,5.00
2017-12-21T00:10:41.639Z,5.10
2017-12-21T00:13:09.313Z,5.10
2017-12-21T00:15:37.770Z,5.00
2017-12-21T00:18:05.438Z,5.00
2017-12-21T00:20:33.043Z,5.10
2017-12-21T00:23:00.641Z,5.00
2017-12-21T00:25:28.234Z,5.00
2017-12-21T00:27:55.820Z,5.00
2017-12-21T00:30:23.411Z,5.00
2017-12-21T00:32:51.053Z,5.00
2017-12-21T00:35:18.666Z,5.00
2017-12-21T00:37:46.270Z,5.00
2017-12-21T00:40:14.793Z,4.90
2017-12-21T00:42:43.217Z,4.90
2017-12-21T00:45:11.620Z,4.90
2017-12-21T00:47:39.278Z,4.90
2017-12-21T00:50:06.906Z,4.90
2017-12-21T00:52:34.608Z,4.90
2017-12-21T00:55:03.019Z,4.90
2017-12-21T00:57:30.616Z,4.90
2017-12-21T00:59:58.196Z,5.00
2017-12-21T01:02:26.551Z,4.90
2017-12-21T01:04:54.140Z,4.90
2017-12-21T01:07:22.457Z,4.90
2017-12-21T01:09:50.083Z,4.90
2017-12-21T01:12:17.923Z,4.90
2017-12-21T01:14:45.655Z,4.90
2017-12-21T01:17:13.258Z,4.90
2017-12-21T01:19:40.889Z,4.90
2017-12-21T01:22:08.528Z,5.00
2017-12-21T01:24:36.132Z,4.90
2017-12-21T01:27:03.741Z,4.90
2017-12-21T01:29:32.091Z,5.00
2017-12-21T01:31:59.678Z,5.00
2017-12-21T01:34:28.021Z,4.90
2017-12-21T01:36:55.629Z,4.90
2017-12-21T01:39:23.319Z,4.90
2017-12-21T01:41:51.048Z,4.90
2017-12-21T01:44:20.277Z,4.90
2017-12-21T01:46:48.524Z,4.90
2017-12-21T01:49:17.364Z,4.90
2017-12-21T01:51:46.366Z,4.90
2017-12-21T01:54:15.976Z,4.90
2017-12-21T01:56:45.003Z,4.80
2017-12-21T01:59:13.405Z,4.90
2017-12-21T02:01:41.034Z,4.90
2017-12-21T02:04:08.637Z,4.90
2017-12-21T02:06:36.215Z,4.90
2017-12-21T02:09:03.825Z,4.90
2017-12-21T02:11:32.151Z,4.90
2017-12-21T02:13:59.726Z,4.90
2017-12-21T02:16:27.305Z,4.90
2017-12-21T02:18:54.891Z,4.90
2017-12-21T02:21:23.266Z,4.80
2017-12-21T02:23:51.641Z,4.80
2017-12-21T02:26:20.079Z,4.80
2017-12-21T02:28:47.879Z,4.80
2017-12-21T02:31:15.488Z,4.80
2017-12-21T02:33:43.206Z,4.80
2017-12-21T02:36:10.884Z,4.80
2017-12-21T02:38:39.350Z,4.80
2017-12-21T02:41:07.780Z,4.80
2017-12-21T02:43:35.404Z,4.80
2017-12-21T02:46:03.782Z,4.80
2017-12-21T02:48:32.274Z,4.80
2017-12-21T02:50:59.900Z,4.80
2017-12-21T02:53:27.600Z,4.80
2017-12-21T02:55:55.274Z,4.80
2017-12-21T02:58:22.927Z,4.80
2017-12-21T03:00:50.597Z,4.90
2017-12-21T03:03:19.061Z,4.80
2017-12-21T03:05:46.791Z,4.80
2017-12-21T03:08:14.418Z,4.90
2017-12-21T03:10:42.048Z,4.90
2017-12-21T03:13:10.396Z,4.80
2017-12-21T03:15:38.034Z,4.80
2017-12-21T03:18:05.619Z,4.90
2017-12-21T03:20:33.256Z,4.90
2017-12-21T03:23:00.829Z,4.90
2017-12-21T03:25:28.472Z,4.90
2017-12-21T03:27:56.058Z,4.90
2017-12-21T03:30:23.657Z,4.90
2017-12-21T03:32:52.066Z,4.90
2017-12-21T03:35:19.694Z,4.90
2017-12-21T03:37:48.073Z,4.90
2017-12-21T03:40:16.433Z,4.90
2017-12-21T03:42:44.166Z,4.90
2017-12-21T03:45:11.750Z,4.90
2017-12-21T03:47:39.451Z,4.80
2017-12-21T03:50:07.108Z,4.80
2017-12-21T03:52:34.854Z,4.90
2017-12-21T03:55:03.336Z,4.90
2017-12-21T03:57:32.536Z,4.90
2017-12-21T04:00:02.099Z,4.90
2017-12-21T04:02:29.770Z,4.90
2017-12-21T04:04:57.402Z,4.90
2017-12-21T04:07:25.072Z,4.90
2017-12-21T04:09:52.666Z,4.90
2017-12-21T04:12:20.326Z,4.90
2017-12-21T04:14:48.014Z,4.90
2017-12-21T04:17:16.360Z,5.00
2017-12-21T04:19:43.985Z,5.00
2017-12-21T04:22:11.594Z,5.10
2017-12-21T04:24:39.276Z,5.10
2017-12-21T04:27:06.858Z,5.10
2017-12-21T04:29:34.481Z,5.10
2017-12-21T04:32:02.124Z,5.00
2017-12-21T04:34:29.687Z,5.10
2017-12-21T04:36:57.309Z,5.10
2017-12-21T04:39:24.910Z,5.10
2017-12-21T04:41:52.915Z,5.10
2017-12-21T04:44:20.591Z,5.10
2017-12-21T04:46:49.054Z,5.00
2017-12-21T04:49:16.678Z,4.90
2017-12-21T04:51:44.339Z,5.00
2017-12-21T04:54:12.046Z,5.00
2017-12-21T04:56:39.642Z,4.90
2017-12-21T04:59:07.233Z,4.90
2017-12-21T05:01:34.822Z,4.90
2017-12-21T05:04:02.509Z,4.90
2017-12-21T05:06:30.270Z,4.90
2017-12-21T05:08:57.861Z,4.90
2017-12-21T05:11:25.541Z,4.90
2017-12-21T05:13:53.205Z,4.90
2017-12-21T05:16:20.860Z,4.80
2017-12-21T05:18:48.441Z,4.80
2017-12-21T05:21:16.123Z,4.80
2017-12-21T05:23:43.795Z,4.80
2017-12-21T05:26:12.195Z,4.80
2017-12-21T05:28:39.816Z,4.80
2017-12-21T05:31:07.433Z,4.80
2017-12-21T05:33:35.021Z,4.80
2017-12-21T05:36:02.710Z,4.80
2017-12-21T05:38:30.301Z,4.70
2017-12-21T05:40:57.934Z,4.80
2017-12-21T05:43:25.608Z,4.80
2017-12-21T05:45:53.336Z,4.80
2017-12-21T05:48:20.944Z,4.80
2017-12-21T05:50:48.514Z,4.80
2017-12-21T05:53:16.261Z,4.80
2017-12-21T05:55:43.898Z,4.80
2017-12-21T05:58:11.546Z,4.70
2017-12-21T06:00:39.188Z,4.70
2017-12-21T06:03:07.104Z,4.70
2017-12-21T06:05:35.758Z,4.70
2017-12-21T06:08:03.339Z,4.60
2017-12-21T06:10:30.938Z,4.70
2017-12-21T06:12:58.593Z,4.70
2017-12-21T06:15:27.012Z,4.60
2017-12-21T06:17:54.648Z,4.60
2017-12-21T06:20:22.226Z,4.60
2017-12-21T06:22:49.892Z,4.60
2017-12-21T06:25:17.564Z,4.60
2017-12-21T06:27:45.175Z,4.60
2017-12-21T06:30:12.911Z,4.60
2017-12-21T06:32:40.534Z,4.60
2017-12-21T06:35:08.224Z,4.60
2017-12-21T06:37:35.936Z,4.60
2017-12-21T06:40:03.666Z,4.70
2017-12-21T06:42:31.269Z,4.70
2017-12-21T06:44:58.841Z,4.70
2017-12-21T06:47:28.115Z,4.70
2017-12-21T06:49:56.590Z,4.70
2017-12-21T06:52:24.191Z,4.70
2017-12-21T06:54:51.809Z,4.70
2017-12-21T06:57:19.401Z,4.70
2017-12-21T06:59:46.978Z,4.70
2017-12-21T07:02:14.563Z,4.70
2017-12-21T07:04:42.194Z,4.70
2017-12-21T07:07:10.546Z,4.70
2017-12-21T07:09:38.143Z,4.70
2017-12-21T07:12:05.756Z,4.70
2017-12-21T07:14:34.157Z,4.70
2017-12-21T07:17:01.734Z,4.70
2017-12-21T07:19:29.315Z,4.70
2017-12-21T07:21:56.929Z,4.80
2017-12-21T07:24:24.522Z,4.70
2017-12-21T07:26:52.115Z,4.80
2017-12-21T07:29:19.719Z,4.80
2017-12-21T07:31:47.323Z,4.80
2017-12-21T07:34:15.004Z,4.80
2017-12-21T07:36:42.626Z,4.90
2017-12-21T07:39:10.255Z,4.80
2017-12-21T07:41:37.895Z,4.80
2017-12-21T07:44:05.513Z,4.80
2017-12-21T07:46:33.908Z,4.80
2017-12-21T07:49:03.824Z,4.80
2017-12-21T07:51:31.450Z,4.90
2017-12-21T07:53:59.071Z,4.80
2017-12-21T07:56:26.766Z,4.80
2017-12-21T07:58:56.107Z,4.80
2017-12-21T08:01:23.795Z,4.90
2017-12-21T08:03:53.138Z,4.90
2017-12-21T08:06:21.275Z,4.90
2017-12-21T08:08:49.679Z,4.90
2017-12-21T08:11:18.300Z,4.90
2017-12-21T08:13:46.015Z,4.90
2017-12-21T08:16:41.272Z,4.90
2017-12-21T08:19:09.577Z,5.00
2017-12-21T08:21:37.155Z,5.00
2017-12-21T08:24:04.802Z,5.00
2017-12-21T08:26:32.428Z,4.90
2017-12-21T08:29:00.096Z,4.90
2017-12-21T08:31:27.695Z,5.00
2017-12-21T08:33:55.287Z,4.90
2017-12-21T08:36:22.894Z,4.90
2017-12-21T08:38:50.515Z,5.00
2017-12-21T08:41:18.196Z,5.00
2017-12-21T08:43:45.890Z,5.00
2017-12-21T08:46:13.960Z,5.10
2017-12-21T08:48:41.930Z,5.10
2017-12-21T08:51:14.637Z,5.10
2017-12-21T08:53:59.520Z,5.10
2017-12-21T08:56:27.411Z,5.10
2017-12-21T08:58:56.805Z,5.20
2017-12-21T09:01:24.862Z,5.20
2017-12-21T09:03:53.107Z,5.20
2017-12-21T09:06:20.763Z,5.20
2017-12-21T09:08:49.105Z,5.20
2017-12-21T09:11:16.839Z,5.20
2017-12-21T09:13:44.468Z,5.20
2017-12-21T09:16:12.984Z,5.20
2017-12-21T09:18:40.576Z,5.20
2017-12-21T09:21:08.131Z,5.30
2017-12-21T09:23:36.794Z,5.30
2017-12-21T09:26:05.279Z,5.20
2017-12-21T09:28:33.386Z,5.30
2017-12-21T09:31:01.002Z,5.30
2017-12-21T09:33:30.538Z,5.30
2017-12-21T09:35:58.166Z,5.30
2017-12-21T09:38:25.790Z,5.40
2017-12-21T09:40:53.517Z,5.40
2017-12-21T09:43:21.306Z,5.40
2017-12-21T09:45:51.348Z,5.50
2017-12-21T09:48:19.799Z,5.50
2017-12-21T09:50:47.391Z,5.50
2017-12-21T09:53:15.006Z,5.50
2017-12-21T09:55:42.670Z,5.50
2017-12-21T09:58:14.311Z,5.50
2017-12-21T10:00:54.447Z,5.40
2017-12-21T10:03:26.600Z,5.40
2017-12-21T10:05:54.186Z,5.40
2017-12-21T10:08:21.777Z,5.30
2017-12-21T10:10:49.372Z,5.40
2017-12-21T10:13:16.940Z,5.40
2017-12-21T10:15:51.460Z,5.40
2017-12-21T10:18:19.050Z,5.50
2017-12-21T10:20:48.198Z,5.50
2017-12-21T10:23:15.781Z,5.40
2017-12-21T10:25:43.448Z,5.50
2017-12-21T10:28:12.731Z,5.50
2017-12-21T10:30:40.379Z,5.40
2017-12-21T10:33:08.028Z,5.40
2017-12-21T10:35:35.671Z,5.50
2017-12-21T10:38:04.217Z,5.50
2017-12-21T10:43:25.456Z,5.60
2017-12-21T10:45:53.065Z,5.60
2017-12-21T10:48:20.748Z,5.50
2017-12-21T10:50:57.623Z,5.50
2017-12-21T10:53:26.568Z,5.60
2017-12-21T10:55:54.166Z,5.60
2017-12-21T10:58:21.744Z,5.60
2017-12-21T11:00:49.404Z,5.60
2017-12-21T11:03:16.990Z,5.70
2017-12-21T11:05:44.658Z,5.70
2017-12-21T11:08:12.359Z,5.70
2017-12-21T11:10:40.859Z,5.60
2017-12-21T11:13:09.058Z,5.60
2017-12-21T11:15:36.727Z,5.60
2017-12-21T11:18:05.011Z,5.60
2017-12-21T11:20:33.601Z,5.70
2017-12-21T11:23:01.213Z,5.60
2017-12-21T11:25:28.799Z,5.60
2017-12-21T11:27:57.189Z,5.70
2017-12-21T11:30:38.805Z,5.70
2017-12-21T11:33:10.424Z,5.70
2017-12-21T11:35:38.048Z,5.70
2017-12-21T11:40:39.045Z,5.80
2017-12-21T11:43:06.639Z,5.80
2017-12-21T11:45:34.236Z,5.80
2017-12-21T11:48:14.412Z,5.80
2017-12-21T11:50:42.125Z,5.80
2017-12-21T11:53:09.736Z,5.80
2017-12-21T11:55:37.316Z,5.90
2017-12-21T11:58:04.909Z,5.90
2017-12-21T12:03:07.589Z,6.00
2017-12-21T12:05:53.974Z,5.90
2017-12-21T12:08:21.787Z,5.90
2017-12-21T12:10:50.384Z,5.90
2017-12-21T12:13:24.056Z,5.90
2017-12-21T12:15:53.994Z,5.90
2017-12-21T12:18:21.961Z,6.00
2017-12-21T12:20:50.632Z,6.10
2017-12-21T12:23:19.381Z,6.10
2017-12-21T12:25:47.480Z,6.10
2017-12-21T12:28:15.369Z,6.00
2017-12-21T12:33:29.988Z,6.10
2017-12-21T12:35:58.448Z,6.10
2017-12-21T12:38:33.699Z,6.10
2017-12-21T12:41:24.776Z,6.00
2017-12-21T12:43:52.763Z,6.00
2017-12-21T13:51:06.672Z,6.00
2017-12-21T13:53:42.763Z,6.10
2017-12-21T14:08:54.544Z,6.10
2017-12-21T14:19:33.245Z,6.00
2017-12-21T14:31:12.564Z,6.10
